This is the latest recevied weather packets stored in our database for station/object WS2Z. If no packets are shown the sender has not sent any weather packets the latest 10 day(s).
| Time | Temp. | Humidity | Pressure | Rain* | Wind** | Luminosity | Snow |
|---|---|---|---|---|---|---|---|
| 1777864148 | 21.11° C | 91% | 1016.7 hPa | 0 mm | - | 0 W/m² | - |
| 1777847480 | 23.89° C | 83% | 1014.7 hPa | 0 mm | - | 66 W/m² | - |
| 1777847178 | 23.89° C | 82% | 1014.7 hPa | 0 mm | - | 65 W/m² | - |
| 1777845361 | 23.89° C | 82% | 1014.8 hPa | 0 mm | - | 99 W/m² | - |
| 1777844756 | 23.89° C | 82% | 1014.8 hPa | 0 mm | - | 161 W/m² | - |
| 1777844452 | 23.89° C | 82% | 1014.7 hPa | 0 mm | - | 160 W/m² | - |
| 1777844151 | 23.89° C | 82% | 1014.9 hPa | 0 mm | - | 115 W/m² | - |
| 1777843847 | 23.89° C | 82% | 1014.9 hPa | 0 mm | - | 89 W/m² | - |
| 1777843544 | 23.89° C | 82% | 1014.8 hPa | 0 mm | - | 120 W/m² | - |
| 1777843242 | 23.89° C | 82% | 1014.9 hPa | 0 mm | - | 123 W/m² | - |
| 1777842939 | 23.89° C | 81% | 1014.8 hPa | 0 mm | - | 116 W/m² | - |
| 1777842634 | 23.89° C | 82% | 1015 hPa | 0 mm | - | 135 W/m² | - |
| 1777842027 | 23.89° C | 83% | 1015.1 hPa | 0 mm | - | 66 W/m² | - |
| 1777839906 | 24.44° C | 81% | 1015.3 hPa | 0 mm | - | 121 W/m² | - |
| 1777837178 | 23.89° C | 83% | 1015.6 hPa | 0 mm | - | 243 W/m² | - |
| 1777835660 | 23.33° C | 85% | 1015.9 hPa | 0 mm | - | 158 W/m² | - |
| 1777835356 | 22.78° C | 86% | 1016.1 hPa | 0 mm | - | 160 W/m² | - |
| 1777833538 | 22.78° C | 87% | 1016 hPa | 0 mm | - | 163 W/m² | - |
| 1777833235 | 22.78° C | 87% | 1016.2 hPa | 0 mm | - | 103 W/m² | - |
| 1777831722 | 22.78° C | 88% | 1016.5 hPa | 0 mm | - | 159 W/m² | - |
| 1777831420 | 22.78° C | 89% | 1016.5 hPa | 0 mm | - | 180 W/m² | - |
| 1777829605 | 22.78° C | 88% | 1016.5 hPa | 0 mm | - | 159 W/m² | - |
| 1777827483 | 22.22° C | 94% | 1016.9 hPa | 0 mm | - | 420 W/m² | - |
| 1777825363 | 21.11° C | 93% | 1017.6 hPa | 1.78 mm | - | 84 W/m² | - |
| 1777825059 | 21.11° C | 93% | 1017.7 hPa | 0 mm | - | 68 W/m² | - |
* Rain latest hour (hover to see other rain measurements)
** Current wind speed in m/s (hover to see current wind gust speed)